createdAt,value
2022-12-22T00:00:31.818Z,108.20
2022-12-22T00:03:38.415Z,13.40
2022-12-22T00:06:28.861Z,13.30
2022-12-22T00:09:15.217Z,12.00
2022-12-22T00:12:02.284Z,11.80
2022-12-22T00:14:49.662Z,12.60
2022-12-22T00:17:44.730Z,12.90
2022-12-22T00:20:35.375Z,11.90
2022-12-22T00:23:22.592Z,12.70
2022-12-22T00:26:09.244Z,10.90
2022-12-22T00:28:56.626Z,12.20
2022-12-22T00:31:44.941Z,11.50
2022-12-22T00:34:37.069Z,13.00
2022-12-22T00:37:23.843Z,13.40
2022-12-22T00:40:10.238Z,11.80
2022-12-22T00:42:56.972Z,12.50
2022-12-22T00:45:43.670Z,11.80
2022-12-22T00:48:41.385Z,10.80
2022-12-22T00:51:29.515Z,11.70
2022-12-22T00:54:16.201Z,18.00
2022-12-22T00:57:03.113Z,79.20
2022-12-22T00:59:50.258Z,12.80
2022-12-22T01:02:36.980Z,11.90
2022-12-22T01:05:24.002Z,13.60
2022-12-22T01:08:10.759Z,12.00
2022-12-22T01:10:57.656Z,23.00
2022-12-22T01:13:45.899Z,71.90
2022-12-22T01:16:33.157Z,18.40
2022-12-22T01:19:20.366Z,40.10
2022-12-22T01:22:07.384Z,38.00
2022-12-22T01:24:54.086Z,12.90
2022-12-22T01:27:40.934Z,12.00
2022-12-22T01:30:28.611Z,14.20
2022-12-22T01:33:15.393Z,12.40
2022-12-22T01:36:02.140Z,11.50
2022-12-22T01:38:48.640Z,11.80
2022-12-22T01:41:39.971Z,11.50
2022-12-22T01:44:36.882Z,11.90
2022-12-22T01:47:45.799Z,12.70
2022-12-22T01:50:45.823Z,11.40
2022-12-22T01:53:43.797Z,11.70
2022-12-22T01:56:30.646Z,11.90
2022-12-22T01:59:22.351Z,11.20
2022-12-22T02:02:08.991Z,10.90
2022-12-22T02:05:03.510Z,11.00
2022-12-22T02:08:16.048Z,11.50
2022-12-22T02:11:43.759Z,10.60
2022-12-22T02:14:50.844Z,10.40
2022-12-22T02:17:58.215Z,9.90
2022-12-22T02:20:59.418Z,10.70
2022-12-22T02:24:04.968Z,11.40
2022-12-22T02:27:08.578Z,11.10
2022-12-22T02:30:06.111Z,10.30
2022-12-22T02:32:58.997Z,10.20
2022-12-22T02:36:15.070Z,9.90
2022-12-22T02:39:14.145Z,9.90
2022-12-22T02:42:07.163Z,10.20
2022-12-22T02:45:32.233Z,9.40
2022-12-22T02:48:35.313Z,10.00
2022-12-22T02:51:33.179Z,11.30
2022-12-22T02:54:21.666Z,10.70
2022-12-22T02:57:08.358Z,10.60
2022-12-22T02:59:55.259Z,10.10
2022-12-22T03:02:42.322Z,11.00
2022-12-22T03:05:29.286Z,11.30
2022-12-22T03:08:15.819Z,10.70
2022-12-22T03:11:02.341Z,10.90
2022-12-22T03:13:49.037Z,9.90
2022-12-22T03:16:35.857Z,10.60
2022-12-22T03:19:22.640Z,10.50
2022-12-22T03:22:09.294Z,10.60
2022-12-22T03:24:56.043Z,10.90
2022-12-22T03:27:24.049Z,9.90
2022-12-22T03:29:51.960Z,11.40
2022-12-22T03:32:20.396Z,9.60
2022-12-22T03:34:48.526Z,11.30
2022-12-22T03:37:16.489Z,10.70
2022-12-22T03:39:44.400Z,11.00
2022-12-22T03:42:31.559Z,10.30
2022-12-22T03:45:18.216Z,10.50
2022-12-22T03:47:46.165Z,10.70
2022-12-22T03:50:14.180Z,9.90
2022-12-22T03:52:42.046Z,11.50
2022-12-22T03:55:10.277Z,10.00
2022-12-22T03:57:38.121Z,10.70
2022-12-22T04:00:07.136Z,12.40
2022-12-22T04:02:40.042Z,10.30
2022-12-22T04:05:08.804Z,11.00
2022-12-22T04:07:36.707Z,10.90
2022-12-22T04:10:24.104Z,11.20
2022-12-22T04:12:55.859Z,10.80
2022-12-22T04:15:32.327Z,10.10
2022-12-22T04:18:00.406Z,10.20
2022-12-22T04:20:28.782Z,10.70
2022-12-22T04:22:57.838Z,10.40
2022-12-22T04:25:27.009Z,9.80
2022-12-22T04:27:55.509Z,10.20
2022-12-22T04:30:23.421Z,11.20
2022-12-22T04:32:51.372Z,10.30
2022-12-22T04:35:19.352Z,11.00
2022-12-22T04:37:47.261Z,10.70
2022-12-22T04:40:16.051Z,10.80
2022-12-22T04:42:43.947Z,11.20
2022-12-22T04:45:11.936Z,9.90
2022-12-22T04:47:39.790Z,9.60
2022-12-22T04:50:08.650Z,10.50
2022-12-22T04:52:36.585Z,10.70
2022-12-22T04:55:06.452Z,9.80
2022-12-22T04:57:40.192Z,9.90
2022-12-22T05:00:10.279Z,10.50
2022-12-22T05:02:38.336Z,15.40
2022-12-22T05:05:07.447Z,11.50
2022-12-22T05:07:35.371Z,11.70
2022-12-22T05:10:05.598Z,10.30
2022-12-22T05:12:54.747Z,11.80
2022-12-22T05:15:25.569Z,10.80
2022-12-22T05:17:53.893Z,11.90
2022-12-22T05:20:22.397Z,11.90
2022-12-22T05:22:50.409Z,10.90
2022-12-22T05:25:19.942Z,11.00
2022-12-22T05:27:50.871Z,18.70
2022-12-22T05:30:20.294Z,24.50
2022-12-22T05:32:48.586Z,14.20
2022-12-22T05:35:16.527Z,13.20
2022-12-22T05:37:44.471Z,11.60
2022-12-22T05:40:12.724Z,12.00
2022-12-22T05:42:40.607Z,11.80
2022-12-22T05:45:20.749Z,11.50
2022-12-22T05:47:52.576Z,12.10
2022-12-22T05:50:24.519Z,11.30
2022-12-22T05:53:07.899Z,11.30
2022-12-22T05:55:35.955Z,11.30
2022-12-22T05:58:04.361Z,11.00
2022-12-22T06:00:34.978Z,11.00
2022-12-22T06:03:03.227Z,12.30
2022-12-22T06:05:31.974Z,11.70
2022-12-22T06:07:59.848Z,12.20
2022-12-22T06:10:29.012Z,11.70
2022-12-22T06:12:56.917Z,12.60
2022-12-22T06:15:24.864Z,13.00
2022-12-22T06:17:55.681Z,11.70
2022-12-22T06:20:23.650Z,12.70
2022-12-22T06:22:51.738Z,11.80
2022-12-22T06:25:19.663Z,11.10
2022-12-22T06:27:47.702Z,12.50
2022-12-22T06:30:16.688Z,12.50
2022-12-22T06:32:44.797Z,12.50
2022-12-22T06:35:12.764Z,12.70
2022-12-22T06:37:41.046Z,10.90
2022-12-22T06:40:10.305Z,11.20
2022-12-22T06:42:59.596Z,11.80
2022-12-22T06:45:32.094Z,11.30
2022-12-22T06:48:00.537Z,11.10
2022-12-22T06:50:28.509Z,13.20
2022-12-22T06:52:56.516Z,11.60
2022-12-22T06:55:24.473Z,11.00
2022-12-22T06:57:52.650Z,12.20
2022-12-22T07:00:21.468Z,11.40
2022-12-22T07:02:49.545Z,11.00
2022-12-22T07:05:17.614Z,11.60
2022-12-22T07:07:45.682Z,11.50
2022-12-22T07:10:13.665Z,11.50
2022-12-22T07:12:42.324Z,11.40
2022-12-22T07:15:10.762Z,11.30
2022-12-22T07:17:41.565Z,11.80
2022-12-22T07:20:10.356Z,11.70
2022-12-22T07:22:38.241Z,10.70
2022-12-22T07:25:07.815Z,11.70
2022-12-22T07:27:35.734Z,10.80
2022-12-22T07:30:04.257Z,11.10
2022-12-22T07:32:32.162Z,11.40
2022-12-22T07:35:05.324Z,10.30
2022-12-22T07:37:33.968Z,10.30
2022-12-22T07:40:02.018Z,10.40
2022-12-22T07:42:45.241Z,11.10
2022-12-22T07:47:47.001Z,10.10
2022-12-22T07:50:25.376Z,10.60
2022-12-22T07:53:00.087Z,9.30
2022-12-22T07:55:31.987Z,25.60
2022-12-22T07:57:59.955Z,10.30
2022-12-22T08:00:28.313Z,9.10
2022-12-22T08:02:57.387Z,9.40
2022-12-22T08:05:26.655Z,9.40
2022-12-22T08:07:54.514Z,9.50
2022-12-22T08:10:22.424Z,9.00
2022-12-22T08:12:50.827Z,103.40
2022-12-22T08:15:18.923Z,202.00
2022-12-22T08:17:46.860Z,145.30
2022-12-22T08:20:14.898Z,109.30
2022-12-22T08:22:42.754Z,10.00
2022-12-22T08:25:10.664Z,7.90
2022-12-22T08:27:47.364Z,9.20
2022-12-22T08:30:15.678Z,8.60
2022-12-22T08:32:48.343Z,8.90
2022-12-22T08:35:17.109Z,8.90
2022-12-22T08:37:46.395Z,8.20
2022-12-22T08:40:28.674Z,39.30
2022-12-22T08:43:04.641Z,27.80
2022-12-22T08:45:33.296Z,18.90
2022-12-22T08:48:01.350Z,11.90
2022-12-22T08:50:29.263Z,9.90
2022-12-22T08:53:05.373Z,9.90
2022-12-22T08:55:33.405Z,15.30
2022-12-22T08:58:01.544Z,20.10
2022-12-22T09:00:29.567Z,10.00
2022-12-22T09:02:57.710Z,13.20
2022-12-22T09:05:25.760Z,11.50
2022-12-22T09:07:53.641Z,12.00
2022-12-22T09:10:21.677Z,8.60
2022-12-22T09:12:51.281Z,11.50
2022-12-22T09:15:19.860Z,9.10
2022-12-22T09:17:48.224Z,10.50
2022-12-22T09:20:16.382Z,10.10
2022-12-22T09:22:44.786Z,39.50
2022-12-22T09:25:14.175Z,19.40
2022-12-22T09:27:42.217Z,17.80
2022-12-22T09:30:11.091Z,16.20
2022-12-22T09:32:39.084Z,10.80
2022-12-22T09:35:07.909Z,23.90
2022-12-22T09:37:35.940Z,12.50
2022-12-22T09:40:04.552Z,16.40
2022-12-22T09:42:35.673Z,12.60
2022-12-22T09:45:04.086Z,12.00
2022-12-22T09:47:37.854Z,10.40
2022-12-22T09:50:12.196Z,12.30
2022-12-22T09:52:48.905Z,11.40
2022-12-22T09:55:26.483Z,11.90
2022-12-22T09:57:54.961Z,11.70
2022-12-22T10:00:26.945Z,12.20
2022-12-22T10:03:27.867Z,48.70
2022-12-22T10:06:10.550Z,21.10
2022-12-22T10:08:40.697Z,11.60
2022-12-22T10:11:17.391Z,11.50
2022-12-22T10:13:46.084Z,11.00
2022-12-22T10:16:32.347Z,13.80
2022-12-22T10:19:11.756Z,11.20
2022-12-22T10:21:46.362Z,21.40
2022-12-22T10:24:26.536Z,38.30
2022-12-22T10:27:00.387Z,32.00
2022-12-22T10:29:29.443Z,25.70
2022-12-22T10:32:05.791Z,30.30
2022-12-22T10:34:34.076Z,17.60
2022-12-22T10:37:05.155Z,17.40
2022-12-22T10:39:36.419Z,17.20
2022-12-22T10:42:14.637Z,17.10
2022-12-22T10:44:49.052Z,11.20
2022-12-22T10:47:24.361Z,12.30
2022-12-22T10:52:32.366Z,14.80
2022-12-22T10:55:26.526Z,15.30
2022-12-22T10:58:17.339Z,23.00
2022-12-22T11:01:01.555Z,23.70
2022-12-22T11:03:31.573Z,13.00
2022-12-22T11:06:00.918Z,12.60
2022-12-22T11:08:30.895Z,16.20
2022-12-22T11:11:07.701Z,14.40
2022-12-22T11:14:35.425Z,22.30
2022-12-22T11:17:33.596Z,11.70
2022-12-22T11:20:34.801Z,14.10
2022-12-22T11:23:51.451Z,25.20
2022-12-22T11:26:39.159Z,35.50
2022-12-22T11:29:52.377Z,18.20
2022-12-22T11:32:48.431Z,12.40
2022-12-22T11:35:57.483Z,13.20
2022-12-22T11:39:08.799Z,12.20
2022-12-22T11:42:14.364Z,12.00
2022-12-22T11:45:09.450Z,14.00
2022-12-22T11:48:08.049Z,15.80
2022-12-22T11:50:58.533Z,19.00
2022-12-22T11:54:10.804Z,18.10
2022-12-22T11:56:55.415Z,14.10
2022-12-22T12:00:14.374Z,49.30
2022-12-22T12:03:10.467Z,14.40
2022-12-22T12:06:25.219Z,20.70
2022-12-22T12:09:21.746Z,13.80
2022-12-22T12:12:00.594Z,14.00
2022-12-22T12:14:52.493Z,19.20
2022-12-22T12:17:54.348Z,15.00
2022-12-22T12:21:01.262Z,90.30
2022-12-22T12:23:48.511Z,110.90
2022-12-22T12:26:32.104Z,35.50
2022-12-22T12:29:24.473Z,19.10
2022-12-22T12:32:16.864Z,14.40
2022-12-22T12:34:51.862Z,16.70
2022-12-22T12:37:37.101Z,14.60
2022-12-22T12:40:48.241Z,14.90
2022-12-22T12:43:17.443Z,14.00
2022-12-22T12:45:49.181Z,14.80
2022-12-22T12:48:20.012Z,17.40
2022-12-22T12:50:50.038Z,35.00
2022-12-22T12:53:20.727Z,14.10
2022-12-22T12:55:56.353Z,35.10
2022-12-22T12:58:39.424Z,29.80
2022-12-22T13:01:30.002Z,16.30
2022-12-22T13:04:03.659Z,15.00
2022-12-22T13:06:53.619Z,13.60
2022-12-22T13:12:51.047Z,71.10
2022-12-22T13:15:35.734Z,14.30
2022-12-22T13:18:29.319Z,17.50
2022-12-22T13:21:51.451Z,15.50
2022-12-22T13:24:27.588Z,20.30
2022-12-22T13:27:06.700Z,13.70
2022-12-22T13:29:47.636Z,14.10
2022-12-22T13:32:33.335Z,14.10
2022-12-22T13:35:35.518Z,14.20
2022-12-22T13:38:04.822Z,13.70
2022-12-22T13:40:44.055Z,13.80
2022-12-22T13:43:16.793Z,15.20
2022-12-22T13:45:55.313Z,18.90
2022-12-22T13:48:46.131Z,16.60
2022-12-22T13:51:29.889Z,17.00
2022-12-22T13:54:26.009Z,29.60
2022-12-22T13:57:01.728Z,14.50
2022-12-22T13:59:34.409Z,32.90
2022-12-22T14:02:08.446Z,22.20
2022-12-22T14:04:39.279Z,22.60
2022-12-22T14:07:20.842Z,16.20
2022-12-22T14:09:55.454Z,17.40
2022-12-22T14:12:27.603Z,29.10
2022-12-22T14:14:58.367Z,38.70
2022-12-22T14:17:29.205Z,30.70
2022-12-22T14:20:00.581Z,21.50
2022-12-22T14:22:41.916Z,17.90
2022-12-22T14:25:25.040Z,15.90
2022-12-22T14:30:42.372Z,16.20
2022-12-22T14:33:26.249Z,30.00
2022-12-22T14:36:21.818Z,42.60
2022-12-22T14:39:03.779Z,47.40
2022-12-22T14:41:51.716Z,15.70
2022-12-22T14:44:22.710Z,15.40
2022-12-22T14:47:11.755Z,21.70
2022-12-22T14:50:01.438Z,26.30
2022-12-22T14:52:49.665Z,102.40
2022-12-22T14:55:42.071Z,65.30
2022-12-22T14:58:09.961Z,14.90
2022-12-22T15:00:47.234Z,17.30
2022-12-22T15:03:33.976Z,24.70
2022-12-22T15:06:27.187Z,16.60
2022-12-22T15:09:47.253Z,20.50
2022-12-22T15:12:21.483Z,20.30
2022-12-22T15:14:49.722Z,15.70
2022-12-22T15:17:22.696Z,19.30
2022-12-22T15:19:51.732Z,17.50
2022-12-22T15:22:19.653Z,43.50
2022-12-22T15:24:47.909Z,16.70
2022-12-22T15:27:15.836Z,18.50
2022-12-22T15:29:43.748Z,17.30
2022-12-22T15:32:13.648Z,15.10
2022-12-22T15:34:41.819Z,19.20
2022-12-22T15:37:12.598Z,29.00
2022-12-22T15:39:40.742Z,31.70
2022-12-22T15:42:08.662Z,18.10
2022-12-22T15:44:38.922Z,18.90
2022-12-22T15:47:11.815Z,14.20
2022-12-22T15:49:40.054Z,16.30
2022-12-22T15:52:10.895Z,26.60
2022-12-22T15:54:38.860Z,45.60
2022-12-22T15:57:12.545Z,101.50
2022-12-22T15:59:40.648Z,72.60
2022-12-22T16:02:12.829Z,43.90
2022-12-22T16:04:40.969Z,29.30
2022-12-22T16:07:12.302Z,28.70
2022-12-22T16:09:44.341Z,29.70
2022-12-22T16:12:18.639Z,24.40
2022-12-22T16:14:52.798Z,24.20
2022-12-22T16:17:26.976Z,23.40
2022-12-22T16:19:54.970Z,36.50
2022-12-22T16:22:33.810Z,52.00
2022-12-22T16:25:07.144Z,25.70
2022-12-22T16:27:35.828Z,23.30
2022-12-22T16:30:05.127Z,55.50
2022-12-22T16:32:33.039Z,69.90
2022-12-22T16:35:20.463Z,46.70
2022-12-22T16:37:49.481Z,37.00
2022-12-22T16:40:19.163Z,54.90
2022-12-22T16:45:46.773Z,27.50
2022-12-22T16:48:32.136Z,22.30
2022-12-22T16:51:00.125Z,22.10
2022-12-22T16:53:28.969Z,23.20
2022-12-22T16:55:59.921Z,22.00
2022-12-22T16:58:27.870Z,22.00
2022-12-22T17:00:55.930Z,20.90
2022-12-22T17:03:28.764Z,21.10
2022-12-22T17:08:33.620Z,14.80
2022-12-22T17:11:10.562Z,17.40
2022-12-22T17:13:39.229Z,18.10
2022-12-22T17:16:18.679Z,17.80
2022-12-22T17:18:47.811Z,17.50
2022-12-22T17:21:19.149Z,35.90
2022-12-22T17:23:54.271Z,18.60
2022-12-22T17:26:25.492Z,18.20
2022-12-22T17:28:53.579Z,18.10
2022-12-22T17:31:24.676Z,19.10
2022-12-22T17:33:52.734Z,20.00
2022-12-22T17:36:37.334Z,20.10
2022-12-22T17:39:06.057Z,19.20
2022-12-22T17:41:34.059Z,18.40
2022-12-22T17:44:01.994Z,20.90
2022-12-22T17:46:30.137Z,21.60
2022-12-22T17:48:58.410Z,22.60
2022-12-22T17:51:29.640Z,24.40
2022-12-22T17:53:59.043Z,22.00
2022-12-22T17:56:29.261Z,21.90
2022-12-22T17:58:57.789Z,21.40
2022-12-22T18:01:32.116Z,22.80
2022-12-22T18:04:00.268Z,22.30
2022-12-22T18:06:34.416Z,24.30
2022-12-22T18:09:03.879Z,21.50
2022-12-22T18:11:32.248Z,23.60
2022-12-22T18:14:00.500Z,25.60
2022-12-22T18:16:29.432Z,25.30
2022-12-22T18:18:57.675Z,24.50
2022-12-22T18:21:25.785Z,24.00
2022-12-22T18:23:53.828Z,22.60
2022-12-22T18:26:28.583Z,26.40
2022-12-22T18:28:57.566Z,25.90
2022-12-22T18:31:25.960Z,24.50
2022-12-22T18:33:54.097Z,23.90
2022-12-22T18:36:33.344Z,25.80
2022-12-22T18:39:02.241Z,27.20
2022-12-22T18:41:35.367Z,26.80
2022-12-22T18:44:03.463Z,27.20
2022-12-22T18:46:31.509Z,28.60
2022-12-22T18:49:05.369Z,26.20
2022-12-22T18:51:34.212Z,26.60
2022-12-22T18:54:02.340Z,27.50
2022-12-22T18:56:30.246Z,24.30
2022-12-22T18:58:58.156Z,23.00
2022-12-22T19:01:27.144Z,24.60
2022-12-22T19:03:58.726Z,23.60
2022-12-22T19:06:26.741Z,24.30
2022-12-22T19:08:54.582Z,25.10
2022-12-22T19:11:26.505Z,64.60
2022-12-22T19:13:54.830Z,24.20
2022-12-22T19:16:26.411Z,23.40
2022-12-22T19:18:54.479Z,22.90
2022-12-22T19:21:22.460Z,22.60
2022-12-22T19:23:53.254Z,24.10
2022-12-22T19:26:26.972Z,25.00
2022-12-22T19:29:01.241Z,22.50
2022-12-22T19:31:33.865Z,22.90
2022-12-22T19:34:12.219Z,22.90
2022-12-22T19:36:40.438Z,32.30
2022-12-22T19:39:08.728Z,22.50
2022-12-22T19:41:50.384Z,21.00
2022-12-22T19:44:30.419Z,20.90
2022-12-22T19:47:01.982Z,25.10
2022-12-22T19:49:30.080Z,18.50
2022-12-22T19:51:58.365Z,18.70
2022-12-22T19:54:27.975Z,16.80
2022-12-22T19:56:56.715Z,16.30
2022-12-22T19:59:38.666Z,23.20
2022-12-22T20:02:32.490Z,30.00
2022-12-22T20:05:00.990Z,16.60
2022-12-22T20:07:30.682Z,16.20
2022-12-22T20:09:58.793Z,14.30
2022-12-22T20:12:39.834Z,13.20
2022-12-22T20:15:37.396Z,14.30
2022-12-22T20:18:24.604Z,16.10
2022-12-22T20:21:03.907Z,14.80
2022-12-22T20:23:37.639Z,14.20
2022-12-22T20:26:12.189Z,16.60
2022-12-22T20:28:42.623Z,12.20
2022-12-22T20:31:14.336Z,14.80
2022-12-22T20:33:42.501Z,14.30
2022-12-22T20:36:26.375Z,13.50
2022-12-22T20:38:56.977Z,14.90
2022-12-22T20:41:25.952Z,12.40
2022-12-22T20:43:53.891Z,14.40
2022-12-22T20:46:25.970Z,40.90
2022-12-22T20:49:10.569Z,17.70
2022-12-22T20:51:39.106Z,18.20
2022-12-22T20:54:08.172Z,15.20
2022-12-22T20:56:40.158Z,12.10
2022-12-22T20:59:20.867Z,14.30
2022-12-22T21:01:51.899Z,15.00
2022-12-22T21:04:21.160Z,15.80
2022-12-22T21:06:53.382Z,13.00
2022-12-22T21:09:22.260Z,14.20
2022-12-22T21:11:50.538Z,15.30
2022-12-22T21:14:18.528Z,16.00
2022-12-22T21:16:46.421Z,12.80
2022-12-22T21:19:18.841Z,16.60
2022-12-22T21:21:47.479Z,18.90
2022-12-22T21:24:16.814Z,18.80
2022-12-22T21:26:56.246Z,16.20
2022-12-22T21:29:27.045Z,15.90
2022-12-22T21:31:54.964Z,16.50
2022-12-22T21:34:22.991Z,17.10
2022-12-22T21:36:59.783Z,18.20
2022-12-22T21:39:41.596Z,17.10
2022-12-22T21:42:18.058Z,15.80
2022-12-22T21:44:46.155Z,13.80
2022-12-22T21:47:17.730Z,15.60
2022-12-22T21:49:45.601Z,13.80
2022-12-22T21:52:13.539Z,14.00
2022-12-22T21:54:41.489Z,14.40
2022-12-22T21:57:15.928Z,13.20
2022-12-22T21:59:44.003Z,14.40
2022-12-22T22:02:17.856Z,10.90
2022-12-22T22:04:53.700Z,13.00
2022-12-22T22:07:23.083Z,14.00
2022-12-22T22:09:50.943Z,13.80
2022-12-22T22:12:35.019Z,13.20
2022-12-22T22:15:06.263Z,12.60
2022-12-22T22:17:34.361Z,13.00
2022-12-22T22:20:03.739Z,12.60
2022-12-22T22:22:31.637Z,13.10
2022-12-22T22:24:59.725Z,13.60
2022-12-22T22:27:27.770Z,15.10
2022-12-22T22:29:55.686Z,13.00
2022-12-22T22:32:23.695Z,14.50
2022-12-22T22:34:52.741Z,15.30
2022-12-22T22:37:20.929Z,14.60
2022-12-22T22:39:50.257Z,16.30
2022-12-22T22:42:18.184Z,16.70
2022-12-22T22:44:46.198Z,14.50
2022-12-22T22:47:14.125Z,15.10
2022-12-22T22:49:42.087Z,14.80
2022-12-22T22:52:12.000Z,14.80
2022-12-22T22:54:39.836Z,17.20
2022-12-22T22:57:07.920Z,14.90
2022-12-22T22:59:35.876Z,13.90
2022-12-22T23:02:04.016Z,14.70
2022-12-22T23:04:32.251Z,13.20
2022-12-22T23:07:00.347Z,16.00
2022-12-22T23:09:28.344Z,15.00
2022-12-22T23:11:56.171Z,14.70
2022-12-22T23:14:25.034Z,14.00
2022-12-22T23:16:52.925Z,14.40
2022-12-22T23:19:20.833Z,15.60
2022-12-22T23:21:48.711Z,18.40
2022-12-22T23:24:17.023Z,12.40
2022-12-22T23:26:44.872Z,14.30
2022-12-22T23:29:12.836Z,13.30
2022-12-22T23:31:40.841Z,13.90
2022-12-22T23:34:11.338Z,12.60
2022-12-22T23:36:39.311Z,12.00
2022-12-22T23:39:07.407Z,12.90
2022-12-22T23:41:35.598Z,11.60
2022-12-22T23:44:03.751Z,13.50
2022-12-22T23:46:32.173Z,13.10
2022-12-22T23:49:00.142Z,12.20
2022-12-22T23:51:29.366Z,12.40
2022-12-22T23:54:00.672Z,11.20
2022-12-22T23:56:29.935Z,12.20
2022-12-22T23:58:58.581Z,11.40
